sensor_id;sensor_type;location;lat;lon;timestamp;P1;durP1;ratioP1;P2;durP2;ratioP2
12687;SDS011;6408;59.388;17.798;2022-12-18T00:00:49;12.83;;;6.70;;
12687;SDS011;6408;59.388;17.798;2022-12-18T00:03:16;15.10;;;7.33;;
12687;SDS011;6408;59.388;17.798;2022-12-18T00:05:46;10.60;;;6.93;;
12687;SDS011;6408;59.388;17.798;2022-12-18T00:08:14;13.10;;;7.13;;
12687;SDS011;6408;59.388;17.798;2022-12-18T00:10:42;11.47;;;6.87;;
12687;SDS011;6408;59.388;17.798;2022-12-18T00:13:10;14.63;;;7.23;;
12687;SDS011;6408;59.388;17.798;2022-12-18T00:15:38;13.97;;;7.17;;
12687;SDS011;6408;59.388;17.798;2022-12-18T00:18:07;12.47;;;7.40;;
12687;SDS011;6408;59.388;17.798;2022-12-18T00:20:38;13.97;;;7.63;;
12687;SDS011;6408;59.388;17.798;2022-12-18T00:23:06;9.73;;;6.33;;
12687;SDS011;6408;59.388;17.798;2022-12-18T00:25:33;12.33;;;6.67;;
12687;SDS011;6408;59.388;17.798;2022-12-18T00:28:00;14.60;;;7.30;;
12687;SDS011;6408;59.388;17.798;2022-12-18T00:30:27;11.43;;;6.63;;
12687;SDS011;6408;59.388;17.798;2022-12-18T00:32:55;9.47;;;6.17;;
12687;SDS011;6408;59.388;17.798;2022-12-18T00:35:24;12.07;;;6.63;;
12687;SDS011;6408;59.388;17.798;2022-12-18T00:37:52;10.60;;;6.40;;
12687;SDS011;6408;59.388;17.798;2022-12-18T00:40:19;13.50;;;6.63;;
12687;SDS011;6408;59.388;17.798;2022-12-18T00:42:46;12.20;;;6.37;;
12687;SDS011;6408;59.388;17.798;2022-12-18T00:45:23;10.87;;;6.47;;
12687;SDS011;6408;59.388;17.798;2022-12-18T00:47:51;10.87;;;6.30;;
12687;SDS011;6408;59.388;17.798;2022-12-18T00:50:18;10.60;;;6.63;;
12687;SDS011;6408;59.388;17.798;2022-12-18T00:52:47;12.10;;;7.43;;
12687;SDS011;6408;59.388;17.798;2022-12-18T00:55:15;11.10;;;6.80;;
12687;SDS011;6408;59.388;17.798;2022-12-18T00:57:42;10.17;;;6.60;;
12687;SDS011;6408;59.388;17.798;2022-12-18T01:00:10;10.13;;;6.67;;
12687;SDS011;6408;59.388;17.798;2022-12-18T01:02:39;12.80;;;6.50;;
12687;SDS011;6408;59.388;17.798;2022-12-18T01:05:07;10.60;;;6.70;;
12687;SDS011;6408;59.388;17.798;2022-12-18T01:07:35;11.50;;;6.10;;
12687;SDS011;6408;59.388;17.798;2022-12-18T01:10:04;12.83;;;6.37;;
12687;SDS011;6408;59.388;17.798;2022-12-18T01:12:33;8.30;;;5.47;;
12687;SDS011;6408;59.388;17.798;2022-12-18T01:15:00;11.30;;;6.67;;
12687;SDS011;6408;59.388;17.798;2022-12-18T01:17:29;11.50;;;7.00;;
12687;SDS011;6408;59.388;17.798;2022-12-18T01:19:56;13.33;;;6.20;;
12687;SDS011;6408;59.388;17.798;2022-12-18T01:22:23;10.20;;;6.43;;
12687;SDS011;6408;59.388;17.798;2022-12-18T01:24:51;10.43;;;6.40;;
12687;SDS011;6408;59.388;17.798;2022-12-18T01:27:19;12.10;;;6.43;;
12687;SDS011;6408;59.388;17.798;2022-12-18T01:29:46;9.20;;;5.87;;
12687;SDS011;6408;59.388;17.798;2022-12-18T01:32:13;10.73;;;6.10;;
12687;SDS011;6408;59.388;17.798;2022-12-18T01:34:41;10.73;;;6.30;;
12687;SDS011;6408;59.388;17.798;2022-12-18T01:37:08;10.57;;;6.57;;
12687;SDS011;6408;59.388;17.798;2022-12-18T01:39:35;12.03;;;6.03;;
12687;SDS011;6408;59.388;17.798;2022-12-18T01:42:03;10.67;;;6.77;;
12687;SDS011;6408;59.388;17.798;2022-12-18T01:47:48;10.37;;;6.17;;
12687;SDS011;6408;59.388;17.798;2022-12-18T01:50:18;10.67;;;5.87;;
12687;SDS011;6408;59.388;17.798;2022-12-18T01:52:48;9.33;;;6.37;;
12687;SDS011;6408;59.388;17.798;2022-12-18T01:55:18;8.27;;;5.77;;
12687;SDS011;6408;59.388;17.798;2022-12-18T01:57:47;10.80;;;6.70;;
12687;SDS011;6408;59.388;17.798;2022-12-18T02:00:18;11.33;;;6.60;;
12687;SDS011;6408;59.388;17.798;2022-12-18T02:02:47;9.30;;;6.23;;
12687;SDS011;6408;59.388;17.798;2022-12-18T02:05:16;12.93;;;6.43;;
12687;SDS011;6408;59.388;17.798;2022-12-18T02:07:47;11.27;;;6.77;;
12687;SDS011;6408;59.388;17.798;2022-12-18T02:10:23;11.37;;;5.93;;
12687;SDS011;6408;59.388;17.798;2022-12-18T02:12:56;10.97;;;6.50;;
12687;SDS011;6408;59.388;17.798;2022-12-18T02:15:36;11.60;;;6.23;;
12687;SDS011;6408;59.388;17.798;2022-12-18T02:18:08;8.73;;;5.33;;
12687;SDS011;6408;59.388;17.798;2022-12-18T02:20:40;13.07;;;6.43;;
12687;SDS011;6408;59.388;17.798;2022-12-18T02:23:17;9.17;;;5.90;;
12687;SDS011;6408;59.388;17.798;2022-12-18T02:26:00;9.87;;;5.97;;
12687;SDS011;6408;59.388;17.798;2022-12-18T02:28:34;10.23;;;5.60;;
12687;SDS011;6408;59.388;17.798;2022-12-18T02:31:07;12.27;;;6.57;;
12687;SDS011;6408;59.388;17.798;2022-12-18T02:33:38;9.67;;;6.23;;
12687;SDS011;6408;59.388;17.798;2022-12-18T02:36:09;12.50;;;6.10;;
12687;SDS011;6408;59.388;17.798;2022-12-18T02:38:37;9.93;;;6.00;;
12687;SDS011;6408;59.388;17.798;2022-12-18T02:41:09;11.10;;;6.33;;
12687;SDS011;6408;59.388;17.798;2022-12-18T02:43:37;13.80;;;6.13;;
12687;SDS011;6408;59.388;17.798;2022-12-18T02:46:20;14.07;;;6.87;;
12687;SDS011;6408;59.388;17.798;2022-12-18T02:48:53;9.83;;;6.63;;
12687;SDS011;6408;59.388;17.798;2022-12-18T02:51:27;9.80;;;5.60;;
12687;SDS011;6408;59.388;17.798;2022-12-18T02:54:00;8.97;;;6.27;;
12687;SDS011;6408;59.388;17.798;2022-12-18T02:56:37;9.43;;;6.00;;
12687;SDS011;6408;59.388;17.798;2022-12-18T02:59:09;10.83;;;6.10;;
12687;SDS011;6408;59.388;17.798;2022-12-18T03:01:41;11.63;;;5.63;;
12687;SDS011;6408;59.388;17.798;2022-12-18T03:04:18;10.00;;;5.73;;
12687;SDS011;6408;59.388;17.798;2022-12-18T03:06:53;9.53;;;5.83;;
12687;SDS011;6408;59.388;17.798;2022-12-18T03:09:25;8.93;;;5.43;;
12687;SDS011;6408;59.388;17.798;2022-12-18T03:11:58;11.03;;;6.70;;
12687;SDS011;6408;59.388;17.798;2022-12-18T03:14:49;11.03;;;5.90;;
12687;SDS011;6408;59.388;17.798;2022-12-18T03:17:22;11.03;;;6.97;;
12687;SDS011;6408;59.388;17.798;2022-12-18T03:19:51;11.37;;;6.10;;
12687;SDS011;6408;59.388;17.798;2022-12-18T03:22:20;10.50;;;6.13;;
12687;SDS011;6408;59.388;17.798;2022-12-18T03:24:50;10.97;;;6.47;;
12687;SDS011;6408;59.388;17.798;2022-12-18T03:27:20;12.50;;;6.63;;
12687;SDS011;6408;59.388;17.798;2022-12-18T03:29:51;8.77;;;5.50;;
12687;SDS011;6408;59.388;17.798;2022-12-18T03:32:26;10.07;;;6.23;;
12687;SDS011;6408;59.388;17.798;2022-12-18T03:34:56;11.77;;;6.27;;
12687;SDS011;6408;59.388;17.798;2022-12-18T03:37:29;10.23;;;5.73;;
12687;SDS011;6408;59.388;17.798;2022-12-18T03:39:56;8.80;;;5.80;;
12687;SDS011;6408;59.388;17.798;2022-12-18T03:42:25;10.37;;;6.40;;
12687;SDS011;6408;59.388;17.798;2022-12-18T03:45:01;9.47;;;5.80;;
12687;SDS011;6408;59.388;17.798;2022-12-18T03:47:31;10.27;;;5.37;;
12687;SDS011;6408;59.388;17.798;2022-12-18T03:50:06;12.33;;;6.10;;
12687;SDS011;6408;59.388;17.798;2022-12-18T03:52:38;10.57;;;5.63;;
12687;SDS011;6408;59.388;17.798;2022-12-18T03:55:10;10.10;;;5.67;;
12687;SDS011;6408;59.388;17.798;2022-12-18T03:57:40;9.23;;;5.40;;
12687;SDS011;6408;59.388;17.798;2022-12-18T04:00:09;9.40;;;5.97;;
12687;SDS011;6408;59.388;17.798;2022-12-18T04:02:42;10.17;;;6.37;;
12687;SDS011;6408;59.388;17.798;2022-12-18T04:05:11;8.37;;;5.60;;
12687;SDS011;6408;59.388;17.798;2022-12-18T04:07:41;10.17;;;5.77;;
12687;SDS011;6408;59.388;17.798;2022-12-18T04:10:09;10.70;;;5.70;;
12687;SDS011;6408;59.388;17.798;2022-12-18T04:12:41;11.20;;;5.00;;
12687;SDS011;6408;59.388;17.798;2022-12-18T04:15:09;9.40;;;5.53;;
12687;SDS011;6408;59.388;17.798;2022-12-18T04:17:38;8.73;;;5.67;;
12687;SDS011;6408;59.388;17.798;2022-12-18T04:20:06;11.87;;;5.50;;
12687;SDS011;6408;59.388;17.798;2022-12-18T04:22:34;11.50;;;5.53;;
12687;SDS011;6408;59.388;17.798;2022-12-18T04:25:02;9.70;;;5.57;;
12687;SDS011;6408;59.388;17.798;2022-12-18T04:27:29;11.73;;;6.23;;
12687;SDS011;6408;59.388;17.798;2022-12-18T04:29:58;9.97;;;5.60;;
12687;SDS011;6408;59.388;17.798;2022-12-18T04:32:26;10.47;;;5.43;;
12687;SDS011;6408;59.388;17.798;2022-12-18T04:34:53;10.03;;;5.53;;
12687;SDS011;6408;59.388;17.798;2022-12-18T04:37:20;9.53;;;5.63;;
12687;SDS011;6408;59.388;17.798;2022-12-18T04:39:47;8.50;;;5.57;;
12687;SDS011;6408;59.388;17.798;2022-12-18T04:42:14;7.00;;;4.97;;
12687;SDS011;6408;59.388;17.798;2022-12-18T04:44:42;11.20;;;5.30;;
12687;SDS011;6408;59.388;17.798;2022-12-18T04:47:11;11.50;;;5.73;;
12687;SDS011;6408;59.388;17.798;2022-12-18T04:49:38;9.70;;;5.53;;
12687;SDS011;6408;59.388;17.798;2022-12-18T04:52:06;8.33;;;5.53;;
12687;SDS011;6408;59.388;17.798;2022-12-18T04:54:33;9.90;;;5.60;;
12687;SDS011;6408;59.388;17.798;2022-12-18T04:57:00;8.73;;;5.53;;
12687;SDS011;6408;59.388;17.798;2022-12-18T04:59:27;8.67;;;5.87;;
12687;SDS011;6408;59.388;17.798;2022-12-18T05:01:55;9.70;;;6.47;;
12687;SDS011;6408;59.388;17.798;2022-12-18T05:04:24;9.13;;;6.10;;
12687;SDS011;6408;59.388;17.798;2022-12-18T05:06:51;13.27;;;6.17;;
12687;SDS011;6408;59.388;17.798;2022-12-18T05:09:18;9.50;;;5.53;;
12687;SDS011;6408;59.388;17.798;2022-12-18T05:11:45;9.87;;;6.20;;
12687;SDS011;6408;59.388;17.798;2022-12-18T05:14:13;12.47;;;6.17;;
12687;SDS011;6408;59.388;17.798;2022-12-18T05:16:41;9.60;;;5.20;;
12687;SDS011;6408;59.388;17.798;2022-12-18T05:19:08;10.93;;;6.63;;
12687;SDS011;6408;59.388;17.798;2022-12-18T05:21:36;10.97;;;6.30;;
12687;SDS011;6408;59.388;17.798;2022-12-18T05:24:04;10.40;;;5.80;;
12687;SDS011;6408;59.388;17.798;2022-12-18T05:26:32;11.37;;;5.93;;
12687;SDS011;6408;59.388;17.798;2022-12-18T05:28:59;8.77;;;5.83;;
12687;SDS011;6408;59.388;17.798;2022-12-18T05:31:27;8.90;;;5.43;;
12687;SDS011;6408;59.388;17.798;2022-12-18T05:33:54;9.97;;;5.90;;
12687;SDS011;6408;59.388;17.798;2022-12-18T05:36:21;8.67;;;5.47;;
12687;SDS011;6408;59.388;17.798;2022-12-18T05:38:50;9.57;;;5.87;;
12687;SDS011;6408;59.388;17.798;2022-12-18T05:41:17;10.20;;;5.43;;
12687;SDS011;6408;59.388;17.798;2022-12-18T05:43:44;10.17;;;5.80;;
12687;SDS011;6408;59.388;17.798;2022-12-18T05:46:13;10.03;;;5.87;;
12687;SDS011;6408;59.388;17.798;2022-12-18T05:48:42;11.97;;;5.20;;
12687;SDS011;6408;59.388;17.798;2022-12-18T05:51:11;8.57;;;5.30;;
12687;SDS011;6408;59.388;17.798;2022-12-18T05:53:40;9.93;;;5.50;;
12687;SDS011;6408;59.388;17.798;2022-12-18T05:56:11;9.17;;;5.50;;
12687;SDS011;6408;59.388;17.798;2022-12-18T05:58:41;9.43;;;4.90;;
12687;SDS011;6408;59.388;17.798;2022-12-18T06:01:11;11.07;;;5.73;;
12687;SDS011;6408;59.388;17.798;2022-12-18T06:03:39;7.90;;;5.40;;
12687;SDS011;6408;59.388;17.798;2022-12-18T06:06:12;9.00;;;5.20;;
12687;SDS011;6408;59.388;17.798;2022-12-18T06:08:40;8.70;;;4.87;;
12687;SDS011;6408;59.388;17.798;2022-12-18T06:11:07;9.47;;;5.57;;
12687;SDS011;6408;59.388;17.798;2022-12-18T06:13:36;9.53;;;5.73;;
12687;SDS011;6408;59.388;17.798;2022-12-18T06:16:04;7.83;;;4.97;;
12687;SDS011;6408;59.388;17.798;2022-12-18T06:18:32;9.43;;;5.23;;
12687;SDS011;6408;59.388;17.798;2022-12-18T06:20:59;8.93;;;5.53;;
12687;SDS011;6408;59.388;17.798;2022-12-18T06:23:27;10.70;;;5.53;;
12687;SDS011;6408;59.388;17.798;2022-12-18T06:25:54;7.43;;;4.80;;
12687;SDS011;6408;59.388;17.798;2022-12-18T06:28:24;11.03;;;5.57;;
12687;SDS011;6408;59.388;17.798;2022-12-18T06:30:52;8.73;;;5.50;;
12687;SDS011;6408;59.388;17.798;2022-12-18T06:33:19;7.10;;;4.97;;
12687;SDS011;6408;59.388;17.798;2022-12-18T06:35:46;9.23;;;4.93;;
12687;SDS011;6408;59.388;17.798;2022-12-18T06:38:13;8.33;;;5.20;;
12687;SDS011;6408;59.388;17.798;2022-12-18T06:40:41;9.93;;;5.03;;
12687;SDS011;6408;59.388;17.798;2022-12-18T06:43:08;10.90;;;5.70;;
12687;SDS011;6408;59.388;17.798;2022-12-18T06:45:37;9.03;;;4.97;;
12687;SDS011;6408;59.388;17.798;2022-12-18T06:48:04;8.10;;;5.17;;
12687;SDS011;6408;59.388;17.798;2022-12-18T06:50:31;8.90;;;5.23;;
12687;SDS011;6408;59.388;17.798;2022-12-18T06:52:59;10.00;;;5.67;;
12687;SDS011;6408;59.388;17.798;2022-12-18T06:55:27;8.13;;;5.10;;
12687;SDS011;6408;59.388;17.798;2022-12-18T06:57:54;8.60;;;5.57;;
12687;SDS011;6408;59.388;17.798;2022-12-18T07:00:21;8.03;;;5.43;;
12687;SDS011;6408;59.388;17.798;2022-12-18T07:02:51;10.70;;;5.27;;
12687;SDS011;6408;59.388;17.798;2022-12-18T07:05:18;11.00;;;5.47;;
12687;SDS011;6408;59.388;17.798;2022-12-18T07:07:45;8.70;;;5.90;;
12687;SDS011;6408;59.388;17.798;2022-12-18T07:10:13;7.90;;;5.50;;
12687;SDS011;6408;59.388;17.798;2022-12-18T07:12:40;10.43;;;5.73;;
12687;SDS011;6408;59.388;17.798;2022-12-18T07:15:07;10.27;;;5.90;;
12687;SDS011;6408;59.388;17.798;2022-12-18T07:17:35;8.80;;;5.30;;
12687;SDS011;6408;59.388;17.798;2022-12-18T07:20:05;9.67;;;5.43;;
12687;SDS011;6408;59.388;17.798;2022-12-18T07:22:33;9.07;;;5.83;;
12687;SDS011;6408;59.388;17.798;2022-12-18T07:25:01;8.70;;;5.03;;
12687;SDS011;6408;59.388;17.798;2022-12-18T07:27:29;8.13;;;5.00;;
12687;SDS011;6408;59.388;17.798;2022-12-18T07:29:57;9.67;;;5.83;;
12687;SDS011;6408;59.388;17.798;2022-12-18T07:32:24;7.97;;;5.03;;
12687;SDS011;6408;59.388;17.798;2022-12-18T07:34:52;12.87;;;5.60;;
12687;SDS011;6408;59.388;17.798;2022-12-18T07:37:21;10.07;;;5.73;;
12687;SDS011;6408;59.388;17.798;2022-12-18T07:39:49;12.93;;;6.63;;
12687;SDS011;6408;59.388;17.798;2022-12-18T07:42:16;9.47;;;6.47;;
12687;SDS011;6408;59.388;17.798;2022-12-18T07:45:00;13.67;;;6.17;;
12687;SDS011;6408;59.388;17.798;2022-12-18T07:47:27;10.70;;;6.43;;
12687;SDS011;6408;59.388;17.798;2022-12-18T07:50:00;11.00;;;6.40;;
12687;SDS011;6408;59.388;17.798;2022-12-18T07:52:30;9.27;;;5.80;;
12687;SDS011;6408;59.388;17.798;2022-12-18T07:54:57;12.80;;;6.63;;
12687;SDS011;6408;59.388;17.798;2022-12-18T07:57:25;9.17;;;5.87;;
12687;SDS011;6408;59.388;17.798;2022-12-18T07:59:52;9.70;;;6.20;;
12687;SDS011;6408;59.388;17.798;2022-12-18T08:02:20;11.17;;;6.67;;
12687;SDS011;6408;59.388;17.798;2022-12-18T08:04:47;12.27;;;7.07;;
12687;SDS011;6408;59.388;17.798;2022-12-18T08:07:15;14.17;;;7.90;;
12687;SDS011;6408;59.388;17.798;2022-12-18T08:09:44;12.20;;;6.83;;
12687;SDS011;6408;59.388;17.798;2022-12-18T08:12:11;9.67;;;6.27;;
12687;SDS011;6408;59.388;17.798;2022-12-18T08:14:39;11.60;;;7.27;;
12687;SDS011;6408;59.388;17.798;2022-12-18T08:17:06;9.60;;;6.43;;
12687;SDS011;6408;59.388;17.798;2022-12-18T08:19:34;13.67;;;6.73;;
12687;SDS011;6408;59.388;17.798;2022-12-18T08:22:02;10.80;;;5.90;;
12687;SDS011;6408;59.388;17.798;2022-12-18T08:24:29;10.43;;;6.00;;
12687;SDS011;6408;59.388;17.798;2022-12-18T08:26:58;12.13;;;6.10;;
12687;SDS011;6408;59.388;17.798;2022-12-18T08:29:26;13.00;;;6.60;;
12687;SDS011;6408;59.388;17.798;2022-12-18T08:31:55;9.87;;;5.97;;
12687;SDS011;6408;59.388;17.798;2022-12-18T08:34:23;9.97;;;6.40;;
12687;SDS011;6408;59.388;17.798;2022-12-18T08:36:50;7.83;;;5.83;;
12687;SDS011;6408;59.388;17.798;2022-12-18T08:39:18;9.33;;;6.40;;
12687;SDS011;6408;59.388;17.798;2022-12-18T08:41:45;13.37;;;6.70;;
12687;SDS011;6408;59.388;17.798;2022-12-18T08:44:35;11.00;;;7.13;;
12687;SDS011;6408;59.388;17.798;2022-12-18T08:47:04;12.07;;;7.43;;
12687;SDS011;6408;59.388;17.798;2022-12-18T08:49:32;11.90;;;6.57;;
12687;SDS011;6408;59.388;17.798;2022-12-18T08:52:01;10.77;;;6.33;;
12687;SDS011;6408;59.388;17.798;2022-12-18T08:54:29;12.20;;;6.33;;
12687;SDS011;6408;59.388;17.798;2022-12-18T08:56:57;10.70;;;6.30;;
12687;SDS011;6408;59.388;17.798;2022-12-18T08:59:25;10.00;;;6.50;;
12687;SDS011;6408;59.388;17.798;2022-12-18T09:01:55;9.30;;;6.57;;
12687;SDS011;6408;59.388;17.798;2022-12-18T09:04:22;13.30;;;6.53;;
12687;SDS011;6408;59.388;17.798;2022-12-18T09:06:50;9.67;;;6.47;;
12687;SDS011;6408;59.388;17.798;2022-12-18T09:09:17;10.40;;;6.37;;
12687;SDS011;6408;59.388;17.798;2022-12-18T09:11:45;9.93;;;7.03;;
12687;SDS011;6408;59.388;17.798;2022-12-18T09:14:13;10.53;;;6.90;;
12687;SDS011;6408;59.388;17.798;2022-12-18T09:16:40;13.37;;;7.43;;
12687;SDS011;6408;59.388;17.798;2022-12-18T09:19:10;10.50;;;7.00;;
12687;SDS011;6408;59.388;17.798;2022-12-18T09:21:37;10.37;;;7.07;;
12687;SDS011;6408;59.388;17.798;2022-12-18T09:24:06;9.33;;;6.20;;
12687;SDS011;6408;59.388;17.798;2022-12-18T09:26:38;11.33;;;7.13;;
12687;SDS011;6408;59.388;17.798;2022-12-18T09:29:05;12.80;;;6.90;;
12687;SDS011;6408;59.388;17.798;2022-12-18T09:31:34;11.43;;;6.00;;
12687;SDS011;6408;59.388;17.798;2022-12-18T09:34:03;10.30;;;6.63;;
12687;SDS011;6408;59.388;17.798;2022-12-18T09:36:34;9.37;;;6.27;;
12687;SDS011;6408;59.388;17.798;2022-12-18T09:39:02;9.80;;;5.90;;
12687;SDS011;6408;59.388;17.798;2022-12-18T09:41:36;12.27;;;6.93;;
12687;SDS011;6408;59.388;17.798;2022-12-18T09:44:11;11.40;;;8.13;;
12687;SDS011;6408;59.388;17.798;2022-12-18T09:46:45;15.57;;;9.03;;
12687;SDS011;6408;59.388;17.798;2022-12-18T09:49:16;12.13;;;7.13;;
12687;SDS011;6408;59.388;17.798;2022-12-18T09:51:49;14.33;;;7.77;;
12687;SDS011;6408;59.388;17.798;2022-12-18T09:54:21;9.43;;;6.57;;
12687;SDS011;6408;59.388;17.798;2022-12-18T09:56:51;10.33;;;7.20;;
12687;SDS011;6408;59.388;17.798;2022-12-18T09:59:21;10.43;;;7.03;;
12687;SDS011;6408;59.388;17.798;2022-12-18T10:01:51;10.87;;;6.23;;
12687;SDS011;6408;59.388;17.798;2022-12-18T10:04:19;8.27;;;6.60;;
12687;SDS011;6408;59.388;17.798;2022-12-18T10:06:51;13.87;;;6.67;;
12687;SDS011;6408;59.388;17.798;2022-12-18T10:09:26;10.57;;;6.73;;
12687;SDS011;6408;59.388;17.798;2022-12-18T10:12:02;10.90;;;7.07;;
12687;SDS011;6408;59.388;17.798;2022-12-18T10:14:39;12.77;;;6.27;;
12687;SDS011;6408;59.388;17.798;2022-12-18T10:17:15;10.43;;;5.97;;
12687;SDS011;6408;59.388;17.798;2022-12-18T10:19:50;10.23;;;6.60;;
12687;SDS011;6408;59.388;17.798;2022-12-18T10:22:29;9.83;;;6.80;;
12687;SDS011;6408;59.388;17.798;2022-12-18T10:25:04;9.83;;;6.33;;
12687;SDS011;6408;59.388;17.798;2022-12-18T10:27:40;9.30;;;6.60;;
12687;SDS011;6408;59.388;17.798;2022-12-18T10:30:11;9.80;;;6.23;;
12687;SDS011;6408;59.388;17.798;2022-12-18T10:32:40;10.80;;;5.90;;
12687;SDS011;6408;59.388;17.798;2022-12-18T10:35:11;12.67;;;6.57;;
12687;SDS011;6408;59.388;17.798;2022-12-18T10:38:02;11.47;;;6.83;;
12687;SDS011;6408;59.388;17.798;2022-12-18T10:40:33;9.20;;;5.83;;
12687;SDS011;6408;59.388;17.798;2022-12-18T10:43:15;12.03;;;6.90;;
12687;SDS011;6408;59.388;17.798;2022-12-18T10:46:04;8.60;;;5.93;;
12687;SDS011;6408;59.388;17.798;2022-12-18T10:48:48;10.73;;;6.80;;
12687;SDS011;6408;59.388;17.798;2022-12-18T10:51:22;9.60;;;6.03;;
12687;SDS011;6408;59.388;17.798;2022-12-18T10:53:54;9.70;;;6.47;;
12687;SDS011;6408;59.388;17.798;2022-12-18T10:56:23;13.70;;;6.97;;
12687;SDS011;6408;59.388;17.798;2022-12-18T10:58:58;14.47;;;7.63;;
12687;SDS011;6408;59.388;17.798;2022-12-18T11:01:27;11.93;;;7.10;;
12687;SDS011;6408;59.388;17.798;2022-12-18T11:04:01;12.03;;;7.23;;
12687;SDS011;6408;59.388;17.798;2022-12-18T11:06:35;9.50;;;6.97;;
12687;SDS011;6408;59.388;17.798;2022-12-18T11:09:22;11.10;;;6.63;;
12687;SDS011;6408;59.388;17.798;2022-12-18T11:11:51;12.27;;;7.30;;
12687;SDS011;6408;59.388;17.798;2022-12-18T11:14:21;9.43;;;6.57;;
12687;SDS011;6408;59.388;17.798;2022-12-18T11:16:51;10.10;;;7.07;;
12687;SDS011;6408;59.388;17.798;2022-12-18T11:19:21;8.63;;;6.23;;
12687;SDS011;6408;59.388;17.798;2022-12-18T11:21:54;10.63;;;7.03;;
12687;SDS011;6408;59.388;17.798;2022-12-18T11:24:27;9.33;;;5.97;;
12687;SDS011;6408;59.388;17.798;2022-12-18T11:26:57;10.60;;;5.97;;
12687;SDS011;6408;59.388;17.798;2022-12-18T11:29:30;9.80;;;5.87;;
12687;SDS011;6408;59.388;17.798;2022-12-18T11:32:19;12.17;;;6.23;;
12687;SDS011;6408;59.388;17.798;2022-12-18T11:34:56;8.87;;;5.90;;
12687;SDS011;6408;59.388;17.798;2022-12-18T11:37:28;9.53;;;5.93;;
12687;SDS011;6408;59.388;17.798;2022-12-18T11:40:01;12.43;;;7.00;;
12687;SDS011;6408;59.388;17.798;2022-12-18T11:42:35;10.37;;;6.60;;
12687;SDS011;6408;59.388;17.798;2022-12-18T11:45:15;12.63;;;6.50;;
12687;SDS011;6408;59.388;17.798;2022-12-18T11:47:53;8.03;;;6.03;;
12687;SDS011;6408;59.388;17.798;2022-12-18T11:50:25;9.17;;;5.47;;
12687;SDS011;6408;59.388;17.798;2022-12-18T11:52:56;10.13;;;5.90;;
12687;SDS011;6408;59.388;17.798;2022-12-18T11:55:27;7.63;;;5.37;;
12687;SDS011;6408;59.388;17.798;2022-12-18T11:58:02;8.70;;;5.20;;
12687;SDS011;6408;59.388;17.798;2022-12-18T12:00:38;7.33;;;4.77;;
12687;SDS011;6408;59.388;17.798;2022-12-18T12:06:08;10.60;;;5.70;;
12687;SDS011;6408;59.388;17.798;2022-12-18T12:08:48;9.13;;;5.70;;
12687;SDS011;6408;59.388;17.798;2022-12-18T12:11:32;10.47;;;5.03;;
12687;SDS011;6408;59.388;17.798;2022-12-18T12:14:22;8.73;;;4.80;;
12687;SDS011;6408;59.388;17.798;2022-12-18T12:17:07;8.23;;;5.10;;
12687;SDS011;6408;59.388;17.798;2022-12-18T12:19:45;8.60;;;5.10;;
12687;SDS011;6408;59.388;17.798;2022-12-18T12:22:22;8.20;;;4.80;;
12687;SDS011;6408;59.388;17.798;2022-12-18T12:25:02;8.83;;;5.23;;
12687;SDS011;6408;59.388;17.798;2022-12-18T12:27:41;9.87;;;5.80;;
12687;SDS011;6408;59.388;17.798;2022-12-18T12:30:18;8.23;;;5.50;;
12687;SDS011;6408;59.388;17.798;2022-12-18T12:32:51;7.50;;;5.07;;
12687;SDS011;6408;59.388;17.798;2022-12-18T12:35:31;7.07;;;4.60;;
12687;SDS011;6408;59.388;17.798;2022-12-18T12:38:08;7.67;;;5.00;;
12687;SDS011;6408;59.388;17.798;2022-12-18T12:40:39;8.70;;;5.00;;
12687;SDS011;6408;59.388;17.798;2022-12-18T12:43:19;8.70;;;5.30;;
12687;SDS011;6408;59.388;17.798;2022-12-18T12:45:52;6.77;;;4.63;;
12687;SDS011;6408;59.388;17.798;2022-12-18T12:48:31;7.77;;;4.53;;
12687;SDS011;6408;59.388;17.798;2022-12-18T12:51:07;9.77;;;5.73;;
12687;SDS011;6408;59.388;17.798;2022-12-18T12:53:39;8.53;;;5.03;;
12687;SDS011;6408;59.388;17.798;2022-12-18T12:56:08;9.03;;;5.13;;
12687;SDS011;6408;59.388;17.798;2022-12-18T12:58:44;6.80;;;4.43;;
12687;SDS011;6408;59.388;17.798;2022-12-18T13:01:22;8.17;;;5.20;;
12687;SDS011;6408;59.388;17.798;2022-12-18T13:04:02;9.30;;;5.07;;
12687;SDS011;6408;59.388;17.798;2022-12-18T13:06:40;7.73;;;4.57;;
12687;SDS011;6408;59.388;17.798;2022-12-18T13:09:12;7.10;;;3.80;;
12687;SDS011;6408;59.388;17.798;2022-12-18T13:11:41;6.90;;;3.93;;
12687;SDS011;6408;59.388;17.798;2022-12-18T13:14:29;9.03;;;4.23;;
12687;SDS011;6408;59.388;17.798;2022-12-18T13:17:14;9.43;;;4.07;;
12687;SDS011;6408;59.388;17.798;2022-12-18T13:20:06;8.23;;;4.30;;
12687;SDS011;6408;59.388;17.798;2022-12-18T13:22:39;9.47;;;4.10;;
12687;SDS011;6408;59.388;17.798;2022-12-18T13:25:28;6.23;;;4.53;;
12687;SDS011;6408;59.388;17.798;2022-12-18T13:28:01;7.70;;;4.60;;
12687;SDS011;6408;59.388;17.798;2022-12-18T13:30:44;9.53;;;4.97;;
12687;SDS011;6408;59.388;17.798;2022-12-18T13:33:38;7.73;;;4.73;;
12687;SDS011;6408;59.388;17.798;2022-12-18T13:36:16;8.87;;;3.73;;
12687;SDS011;6408;59.388;17.798;2022-12-18T13:45:37;7.10;;;4.53;;
12687;SDS011;6408;59.388;17.798;2022-12-18T13:48:20;9.70;;;5.77;;
12687;SDS011;6408;59.388;17.798;2022-12-18T13:50:51;9.00;;;5.53;;
12687;SDS011;6408;59.388;17.798;2022-12-18T13:53:22;7.73;;;3.87;;
12687;SDS011;6408;59.388;17.798;2022-12-18T13:55:53;5.10;;;3.27;;
12687;SDS011;6408;59.388;17.798;2022-12-18T13:58:21;6.17;;;3.40;;
12687;SDS011;6408;59.388;17.798;2022-12-18T14:00:48;7.83;;;3.67;;
12687;SDS011;6408;59.388;17.798;2022-12-18T14:06:04;8.07;;;4.80;;
12687;SDS011;6408;59.388;17.798;2022-12-18T14:08:35;5.93;;;3.63;;
12687;SDS011;6408;59.388;17.798;2022-12-18T14:11:05;5.03;;;3.23;;
12687;SDS011;6408;59.388;17.798;2022-12-18T14:13:38;7.37;;;3.73;;
12687;SDS011;6408;59.388;17.798;2022-12-18T14:16:11;7.43;;;3.63;;
12687;SDS011;6408;59.388;17.798;2022-12-18T14:18:44;5.57;;;3.57;;
12687;SDS011;6408;59.388;17.798;2022-12-18T14:21:17;4.57;;;2.87;;
12687;SDS011;6408;59.388;17.798;2022-12-18T14:23:48;5.67;;;3.13;;
12687;SDS011;6408;59.388;17.798;2022-12-18T14:26:29;6.43;;;3.20;;
12687;SDS011;6408;59.388;17.798;2022-12-18T14:28:58;7.13;;;3.13;;
12687;SDS011;6408;59.388;17.798;2022-12-18T14:31:28;9.37;;;3.60;;
12687;SDS011;6408;59.388;17.798;2022-12-18T14:33:59;4.53;;;2.93;;
12687;SDS011;6408;59.388;17.798;2022-12-18T14:36:27;5.90;;;3.40;;
12687;SDS011;6408;59.388;17.798;2022-12-18T14:38:55;6.90;;;3.80;;
12687;SDS011;6408;59.388;17.798;2022-12-18T14:41:24;4.57;;;2.50;;
12687;SDS011;6408;59.388;17.798;2022-12-18T14:43:53;6.33;;;3.00;;
12687;SDS011;6408;59.388;17.798;2022-12-18T14:46:28;8.37;;;3.80;;
12687;SDS011;6408;59.388;17.798;2022-12-18T14:49:01;6.57;;;2.33;;
12687;SDS011;6408;59.388;17.798;2022-12-18T14:51:30;5.60;;;3.70;;
12687;SDS011;6408;59.388;17.798;2022-12-18T14:54:00;8.13;;;3.03;;
12687;SDS011;6408;59.388;17.798;2022-12-18T14:56:29;5.30;;;2.90;;
12687;SDS011;6408;59.388;17.798;2022-12-18T14:58:59;6.33;;;2.40;;
12687;SDS011;6408;59.388;17.798;2022-12-18T15:01:29;6.57;;;3.00;;
12687;SDS011;6408;59.388;17.798;2022-12-18T15:03:58;5.23;;;2.60;;
12687;SDS011;6408;59.388;17.798;2022-12-18T15:06:33;3.57;;;2.40;;
12687;SDS011;6408;59.388;17.798;2022-12-18T15:09:03;5.13;;;2.87;;
12687;SDS011;6408;59.388;17.798;2022-12-18T15:11:43;4.83;;;2.47;;
12687;SDS011;6408;59.388;17.798;2022-12-18T15:14:21;6.17;;;2.40;;
12687;SDS011;6408;59.388;17.798;2022-12-18T15:17:06;6.50;;;2.40;;
12687;SDS011;6408;59.388;17.798;2022-12-18T15:19:45;5.40;;;2.57;;